Time;durP1;ratioP1;P1;durP2;ratioP2;P2;SDS_P1;SDS_P2;PMS_P1;PMS_P2;Temp;Humidity;BMP_temperature;BMP_pressure;BME280_temperature;BME280_humidity;BME280_pressure;Samples;Min_cycle;Max_cycle;Signal;HPM_P1;HPM_P2
2022/02/28 00:01:24;;;;;;;5.10;4.00;;;1.20;99.90;;;;;;484345;245;27564;-75
2022/02/28 00:03:25;;;;;;;4.60;4.20;;;1.10;99.90;;;;;;484348;245;27465;-75
2022/02/28 00:05:26;;;;;;;4.50;4.10;;;1.10;99.90;;;;;;484366;245;27430;-75
2022/02/28 00:07:28;;;;;;;4.15;3.75;;;1.10;99.90;;;;;;484372;245;27922;-76
2022/02/28 00:09:29;;;;;;;4.68;4.28;;;1.10;99.90;;;;;;484362;245;27933;-76
2022/02/28 00:11:30;;;;;;;3.87;3.58;;;1.10;99.90;;;;;;484335;245;27872;-75
2022/02/28 00:13:31;;;;;;;4.35;3.95;;;1.10;99.90;;;;;;484353;245;27936;-75
2022/02/28 00:15:33;;;;;;;4.03;3.60;;;1.10;99.90;;;;;;484357;245;27442;-76
2022/02/28 00:17:34;;;;;;;4.25;3.75;;;1.10;99.90;;;;;;484392;245;27479;-75
2022/02/28 00:19:35;;;;;;;4.70;4.20;;;1.00;99.90;;;;;;484371;245;27433;-75
2022/02/28 00:21:36;;;;;;;5.40;4.10;;;1.00;99.90;;;;;;484346;245;27492;-75
2022/02/28 00:23:38;;;;;;;4.80;3.70;;;0.90;99.90;;;;;;484349;245;27491;-75
2022/02/28 00:25:39;;;;;;;6.05;4.03;;;1.00;99.90;;;;;;484375;245;27908;-75
2022/02/28 00:27:40;;;;;;;5.25;4.15;;;1.00;99.90;;;;;;484365;245;27405;-75
2022/02/28 00:29:41;;;;;;;4.32;3.92;;;0.90;99.90;;;;;;484339;245;27459;-75
2022/02/28 00:31:43;;;;;;;4.53;4.07;;;0.80;99.90;;;;;;484359;245;27466;-74
2022/02/28 00:33:44;;;;;;;4.68;4.28;;;0.80;99.90;;;;;;484400;245;27458;-75
2022/02/28 00:35:45;;;;;;;4.05;3.65;;;0.70;99.90;;;;;;484401;245;28045;-75
2022/02/28 00:37:46;;;;;;;4.20;3.80;;;0.70;99.90;;;;;;484375;245;27838;-75
2022/02/28 00:39:48;;;;;;;3.60;3.30;;;0.70;99.90;;;;;;484375;245;27969;-75
2022/02/28 00:41:49;;;;;;;3.80;3.50;;;0.80;99.90;;;;;;484350;245;27871;-75
2022/02/28 00:43:50;;;;;;;3.83;3.47;;;0.70;99.90;;;;;;484349;245;27453;-74
2022/02/28 00:45:51;;;;;;;3.87;3.55;;;0.60;99.90;;;;;;484396;245;27465;-74
2022/02/28 00:47:53;;;;;;;3.90;3.60;;;0.60;99.90;;;;;;484386;245;27419;-75
2022/02/28 00:49:54;;;;;;;4.18;3.78;;;0.50;99.90;;;;;;484365;245;27443;-75
2022/02/28 00:51:55;;;;;;;3.92;3.62;;;0.50;99.90;;;;;;484372;245;27517;-75
2022/02/28 00:53:56;;;;;;;3.42;3.12;;;0.40;99.90;;;;;;484336;245;27530;-75
2022/02/28 00:55:58;;;;;;;4.00;3.70;;;0.40;99.90;;;;;;484347;245;27810;-75
2022/02/28 00:57:59;;;;;;;4.30;3.60;;;0.40;99.90;;;;;;484343;245;27536;-74
2022/02/28 01:00:00;;;;;;;5.50;3.97;;;0.30;99.90;;;;;;484374;244;27489;-76
2022/02/28 01:02:01;;;;;;;5.03;4.53;;;0.20;99.90;;;;;;484342;245;27473;-75
2022/02/28 01:04:03;;;;;;;4.37;3.95;;;0.10;99.90;;;;;;484325;245;27896;-75
2022/02/28 01:06:04;;;;;;;5.07;4.57;;;0.10;99.90;;;;;;484341;245;28025;-75
2022/02/28 01:08:05;;;;;;;4.93;4.25;;;0.10;99.90;;;;;;484356;245;29097;-75
2022/02/28 01:10:06;;;;;;;7.35;4.65;;;0.10;99.90;;;;;;484364;245;28821;-76
2022/02/28 01:12:08;;;;;;;8.35;5.25;;;0.20;99.90;;;;;;484305;245;27439;-75
2022/02/28 01:14:09;;;;;;;4.85;4.30;;;0.20;99.90;;;;;;484338;245;27419;-75
2022/02/28 01:16:10;;;;;;;5.12;4.62;;;0.20;99.90;;;;;;484385;245;27451;-75
2022/02/28 01:18:11;;;;;;;4.57;3.97;;;0.20;99.90;;;;;;484392;245;27437;-75
2022/02/28 01:20:13;;;;;;;5.05;4.55;;;0.10;99.90;;;;;;484368;245;27446;-75
2022/02/28 01:22:14;;;;;;;7.55;4.80;;;0.20;99.90;;;;;;484365;245;27419;-75
2022/02/28 01:24:15;;;;;;;4.68;4.28;;;0.30;99.90;;;;;;484351;245;27454;-75
2022/02/28 01:26:17;;;;;;;5.72;4.53;;;0.20;99.90;;;;;;484391;245;27811;-75
2022/02/28 01:28:18;;;;;;;6.30;4.95;;;0.20;99.90;;;;;;484363;245;27407;-76
2022/02/28 01:30:19;;;;;;;6.35;5.37;;;0.20;99.90;;;;;;484368;245;27461;-75
2022/02/28 01:32:20;;;;;;;9.45;5.50;;;0.20;99.90;;;;;;484343;245;27987;-75
2022/02/28 01:34:21;;;;;;;7.70;5.43;;;0.20;99.90;;;;;;484318;245;27930;-75
2022/02/28 01:36:23;;;;;;;8.57;6.10;;;0.20;99.90;;;;;;484393;245;27954;-76
2022/02/28 01:38:24;;;;;;;8.00;5.85;;;0.20;99.90;;;;;;484393;245;27865;-75
2022/02/28 01:40:25;;;;;;;6.80;6.10;;;0.20;99.90;;;;;;484369;245;27436;-75
2022/02/28 01:42:26;;;;;;;9.68;6.35;;;0.20;99.90;;;;;;484376;244;27394;-75
2022/02/28 01:44:28;;;;;;;10.15;5.68;;;0.20;99.90;;;;;;484198;245;27447;-75
2022/02/28 01:46:29;;;;;;;7.50;6.00;;;0.20;99.90;;;;;;484400;245;27455;-75
2022/02/28 01:48:30;;;;;;;7.90;6.10;;;0.20;99.90;;;;;;484389;245;27413;-75
2022/02/28 01:50:31;;;;;;;7.12;5.47;;;0.20;99.90;;;;;;484367;245;27451;-75
2022/02/28 01:52:33;;;;;;;8.07;5.62;;;0.20;99.90;;;;;;484357;245;27405;-75
2022/02/28 01:54:34;;;;;;;10.63;6.60;;;0.20;99.90;;;;;;484375;245;27514;-75
2022/02/28 01:56:35;;;;;;;7.85;6.90;;;0.20;99.90;;;;;;484387;245;27442;-77
2022/02/28 01:58:36;;;;;;;11.32;7.30;;;0.20;99.90;;;;;;484382;245;27889;-76
2022/02/28 02:00:38;;;;;;;10.65;6.80;;;0.20;99.90;;;;;;484374;245;27926;-75
2022/02/28 02:02:39;;;;;;;14.10;7.90;;;0.20;99.90;;;;;;484318;245;27855;-75
2022/02/28 02:04:41;;;;;;;13.77;8.63;;;0.20;99.90;;;;;;484352;245;27538;-75
2022/02/28 02:06:41;;;;;;;17.00;9.27;;;0.20;99.90;;;;;;484358;244;27545;-74
2022/02/28 02:08:43;;;;;;;15.05;9.80;;;0.20;99.90;;;;;;484368;245;27506;-75
2022/02/28 02:10:44;;;;;;;12.75;8.82;;;0.20;99.90;;;;;;484328;245;27453;-75
2022/02/28 02:12:45;;;;;;;13.73;9.23;;;0.20;99.90;;;;;;484347;245;27416;-75
2022/02/28 02:14:46;;;;;;;13.25;8.27;;;0.20;99.90;;;;;;484369;245;27474;-75
2022/02/28 02:16:48;;;;;;;15.48;8.93;;;0.20;99.90;;;;;;484345;245;27772;-74
2022/02/28 02:18:49;;;;;;;13.10;8.02;;;0.20;99.90;;;;;;484384;245;27995;-75
2022/02/28 02:20:50;;;;;;;10.32;7.20;;;0.20;99.90;;;;;;484397;245;27991;-75
2022/02/28 02:22:51;;;;;;;12.57;7.50;;;0.30;99.90;;;;;;484289;244;27986;-75
2022/02/28 02:24:53;;;;;;;12.75;7.20;;;0.40;99.90;;;;;;484364;245;27442;-75
2022/02/28 02:26:54;;;;;;;10.90;7.03;;;0.30;99.90;;;;;;491238;235;27592;-75
2022/02/28 02:28:55;;;;;;;9.90;6.70;;;0.30;99.90;;;;;;478066;249;27509;-75
2022/02/28 02:30:56;;;;;;;7.32;6.10;;;0.40;99.90;;;;;;495950;240;27470;-75
2022/02/28 02:32:58;;;;;;;8.45;6.30;;;0.40;99.90;;;;;;478034;249;27662;-75
2022/02/28 02:34:59;;;;;;;7.00;6.30;;;0.40;99.90;;;;;;495937;240;27614;-75
2022/02/28 02:37:00;;;;;;;6.95;6.12;;;0.50;99.90;;;;;;481865;240;27837;-75
2022/02/28 02:39:01;;;;;;;9.45;6.55;;;0.50;99.90;;;;;;487703;243;27401;-75
2022/02/28 02:41:03;;;;;;;8.50;6.30;;;0.50;99.90;;;;;;490144;242;27524;-75
2022/02/28 02:43:04;;;;;;;7.57;6.35;;;0.50;99.90;;;;;;491059;241;27853;-75
2022/02/28 02:45:05;;;;;;;13.20;7.22;;;0.50;99.90;;;;;;491056;241;28037;-75
2022/02/28 02:47:06;;;;;;;9.02;6.15;;;0.60;99.90;;;;;;480864;239;27987;-75
2022/02/28 02:49:08;;;;;;;10.68;7.37;;;0.60;99.90;;;;;;477492;249;27902;-75
2022/02/28 02:51:10;;;;;;;9.88;6.00;;;0.60;99.90;;;;;;477430;249;27459;-75
2022/02/28 02:53:10;;;;;;;9.10;6.70;;;0.60;99.90;;;;;;477413;249;27489;-75
2022/02/28 02:55:12;;;;;;;8.93;6.80;;;0.60;99.90;;;;;;477416;249;27431;-75
2022/02/28 02:57:13;;;;;;;8.40;6.35;;;0.60;99.90;;;;;;477465;249;27582;-74
2022/02/28 02:59:14;;;;;;;9.50;6.50;;;0.60;99.90;;;;;;477215;244;27422;-75
2022/02/28 03:01:15;;;;;;;8.75;6.18;;;0.60;99.90;;;;;;477452;244;27454;-75
2022/02/28 03:03:17;;;;;;;6.15;5.55;;;0.60;99.90;;;;;;477441;249;27504;-75
2022/02/28 03:05:18;;;;;;;7.55;5.70;;;0.50;99.90;;;;;;477465;249;27505;-75
2022/02/28 03:07:19;;;;;;;7.30;5.32;;;0.50;99.90;;;;;;492528;239;27484;-75
2022/02/28 03:09:20;;;;;;;6.78;6.03;;;0.50;99.90;;;;;;496580;239;27443;-75
2022/02/28 03:11:22;;;;;;;6.03;4.93;;;0.50;99.90;;;;;;496580;239;27393;-74
2022/02/28 03:13:23;;;;;;;7.18;4.80;;;0.40;99.90;;;;;;487625;243;27559;-74
2022/02/28 03:15:24;;;;;;;5.25;4.75;;;0.30;99.90;;;;;;479125;248;27593;-75
2022/02/28 03:17:25;;;;;;;6.30;5.57;;;0.40;99.90;;;;;;487664;244;27521;-75
2022/02/28 03:19:27;;;;;;;5.70;5.00;;;0.30;99.90;;;;;;479123;248;27594;-74
2022/02/28 03:21:28;;;;;;;6.82;5.43;;;0.30;99.90;;;;;;487620;244;27493;-75
2022/02/28 03:23:29;;;;;;;6.22;5.62;;;0.30;99.90;;;;;;479110;248;27471;-75
2022/02/28 03:25:30;;;;;;;6.22;5.22;;;0.30;99.90;;;;;;487636;244;27561;-75
2022/02/28 03:27:32;;;;;;;6.50;5.12;;;0.30;99.90;;;;;;479170;248;27991;-75
2022/02/28 03:29:33;;;;;;;4.40;4.00;;;0.20;99.90;;;;;;487620;244;28003;-75
2022/02/28 03:31:34;;;;;;;5.18;4.70;;;0.20;99.90;;;;;;479117;247;29089;-74
2022/02/28 03:33:35;;;;;;;5.70;5.10;;;0.20;99.90;;;;;;487628;244;27564;-74
2022/02/28 03:35:37;;;;;;;6.72;5.25;;;0.20;99.90;;;;;;479133;248;27489;-75
2022/02/28 03:37:38;;;;;;;5.87;5.20;;;0.30;99.90;;;;;;487649;244;27606;-74
2022/02/28 03:39:39;;;;;;;7.45;5.85;;;0.30;99.90;;;;;;479146;248;27569;-75
2022/02/28 03:41:40;;;;;;;9.10;5.82;;;0.30;99.90;;;;;;487637;244;27510;-74
2022/02/28 03:43:42;;;;;;;10.68;5.90;;;0.40;99.90;;;;;;479152;248;27477;-75
2022/02/28 03:45:43;;;;;;;9.23;5.82;;;0.30;99.90;;;;;;487609;244;27543;-74
2022/02/28 03:47:44;;;;;;;5.53;4.93;;;0.30;99.90;;;;;;479134;248;27518;-75
2022/02/28 03:49:45;;;;;;;7.40;5.85;;;0.30;99.90;;;;;;487655;244;27546;-75
2022/02/28 03:51:47;;;;;;;7.45;5.95;;;0.30;99.90;;;;;;479121;248;27601;-75
2022/02/28 03:53:48;;;;;;;6.12;5.53;;;0.40;99.90;;;;;;487594;241;27908;-75
2022/02/28 03:55:49;;;;;;;7.10;6.10;;;0.40;99.90;;;;;;479124;248;28040;-75
2022/02/28 03:57:50;;;;;;;7.03;5.62;;;0.40;99.90;;;;;;487656;243;29054;-75
2022/02/28 03:59:53;;;;;;;7.60;5.43;;;0.40;99.90;;;;;;479133;248;29038;-75
2022/02/28 04:01:54;;;;;;;8.13;6.25;;;0.30;99.90;;;;;;487669;244;27497;-75
2022/02/28 04:03:56;;;;;;;6.07;5.47;;;0.30;99.90;;;;;;479143;248;27550;-75
2022/02/28 04:05:57;;;;;;;7.05;5.85;;;0.30;99.90;;;;;;487614;244;27537;-75
2022/02/28 04:07:58;;;;;;;6.00;5.40;;;0.20;99.90;;;;;;480800;247;27921;-75
2022/02/28 04:09:59;;;;;;;7.78;5.60;;;0.20;99.90;;;;;;488355;243;27899;-75
2022/02/28 04:12:01;;;;;;;11.00;6.32;;;0.30;99.90;;;;;;488392;242;28002;-75
2022/02/28 04:14:02;;;;;;;7.10;6.03;;;0.30;99.90;;;;;;488343;242;27467;-75
2022/02/28 04:16:03;;;;;;;9.38;5.53;;;0.30;99.90;;;;;;488272;243;27475;-75
2022/02/28 04:18:04;;;;;;;8.45;6.32;;;0.30;99.90;;;;;;488325;242;27375;-74
2022/02/28 04:20:06;;;;;;;8.52;5.80;;;0.20;99.90;;;;;;488329;241;27411;-75
2022/02/28 04:22:07;;;;;;;9.13;6.05;;;0.20;99.90;;;;;;488314;242;27400;-76
2022/02/28 04:24:08;;;;;;;8.88;6.50;;;0.30;99.90;;;;;;488321;242;27372;-75
2022/02/28 04:26:09;;;;;;;8.98;5.80;;;0.20;99.90;;;;;;488319;242;27424;-75
2022/02/28 04:28:11;;;;;;;6.57;5.85;;;0.20;99.90;;;;;;488300;242;27419;-75
2022/02/28 04:30:12;;;;;;;8.07;6.35;;;0.20;99.90;;;;;;488289;242;27502;-75
2022/02/28 04:32:13;;;;;;;9.05;6.22;;;0.20;99.90;;;;;;488327;242;27404;-75
2022/02/28 04:34:14;;;;;;;7.22;6.32;;;0.20;99.90;;;;;;488319;242;27987;-75
2022/02/28 04:36:16;;;;;;;5.93;5.32;;;0.30;99.90;;;;;;488333;243;27927;-75
2022/02/28 04:38:18;;;;;;;8.50;6.30;;;0.20;99.90;;;;;;488321;242;28741;-75
2022/02/28 04:40:18;;;;;;;7.22;6.18;;;0.20;99.90;;;;;;488231;243;27962;-75
2022/02/28 04:42:21;;;;;;;7.72;6.43;;;0.20;99.90;;;;;;488316;242;28998;-76
2022/02/28 04:44:21;;;;;;;7.00;5.68;;;0.20;99.90;;;;;;488173;243;27491;-75
2022/02/28 04:46:22;;;;;;;10.30;6.68;;;0.20;99.90;;;;;;488020;242;27503;-75
2022/02/28 04:48:23;;;;;;;7.82;5.85;;;0.20;99.90;;;;;;488213;242;27400;-75
2022/02/28 04:50:25;;;;;;;6.95;5.37;;;0.20;99.90;;;;;;488267;242;27395;-74
2022/02/28 04:52:26;;;;;;;5.90;5.05;;;0.10;99.90;;;;;;488266;242;27435;-75
2022/02/28 04:54:27;;;;;;;6.47;5.57;;;0.10;99.90;;;;;;488261;242;27381;-75
2022/02/28 04:56:28;;;;;;;6.57;5.93;;;0.00;99.90;;;;;;488280;242;27403;-75
2022/02/28 04:58:30;;;;;;;7.65;6.60;;;0.10;99.90;;;;;;488292;242;27825;-75
2022/02/28 05:00:31;;;;;;;7.25;5.55;;;0.00;99.90;;;;;;488315;242;27416;-75
2022/02/28 05:02:32;;;;;;;7.00;6.30;;;0.00;99.90;;;;;;488332;242;27914;-75
2022/02/28 05:04:33;;;;;;;8.15;6.43;;;0.00;99.90;;;;;;488310;242;27838;-75
2022/02/28 05:06:35;;;;;;;6.85;5.55;;;0.00;99.90;;;;;;488305;242;28027;-76
2022/02/28 05:08:36;;;;;;;7.18;6.10;;;0.00;99.90;;;;;;488330;241;27848;-75
2022/02/28 05:10:37;;;;;;;6.47;5.40;;;0.00;99.90;;;;;;488338;242;27919;-76
2022/02/28 05:12:38;;;;;;;6.68;5.72;;;0.00;99.90;;;;;;488353;241;27423;-75
2022/02/28 05:14:40;;;;;;;7.10;5.70;;;-0.10;99.90;;;;;;488348;241;27372;-76
2022/02/28 05:16:41;;;;;;;8.82;6.03;;;-0.40;99.90;;;;;;488341;242;27510;-77
2022/02/28 05:18:42;;;;;;;7.00;5.28;;;-0.60;99.90;;;;;;488345;242;27439;-75
2022/02/28 05:20:43;;;;;;;5.10;4.60;;;-0.80;99.90;;;;;;488333;243;27476;-74
2022/02/28 05:22:45;;;;;;;5.50;4.95;;;-0.90;99.90;;;;;;488345;242;27526;-75
2022/02/28 05:24:46;;;;;;;6.10;5.10;;;-1.00;99.90;;;;;;488362;242;27384;-74
2022/02/28 05:26:47;;;;;;;5.82;4.68;;;-1.00;99.90;;;;;;488329;242;27966;-75
2022/02/28 05:28:48;;;;;;;4.90;4.35;;;-1.10;99.90;;;;;;488356;242;27901;-75
2022/02/28 05:30:50;;;;;;;5.45;4.50;;;-1.10;99.90;;;;;;488336;243;27904;-75
2022/02/28 05:32:51;;;;;;;5.40;4.45;;;-1.00;99.90;;;;;;488348;241;27411;-75
2022/02/28 05:34:52;;;;;;;5.47;4.25;;;-1.00;99.90;;;;;;488337;242;27383;-74
2022/02/28 05:36:53;;;;;;;6.82;5.22;;;-1.00;99.90;;;;;;488352;242;27418;-75
2022/02/28 05:38:55;;;;;;;7.57;5.53;;;-0.90;99.90;;;;;;488334;242;27506;-75
2022/02/28 05:40:56;;;;;;;7.07;5.60;;;-0.80;99.90;;;;;;488307;242;27494;-75
2022/02/28 05:42:57;;;;;;;8.75;6.78;;;-0.80;99.90;;;;;;488346;242;27430;-75
2022/02/28 05:44:58;;;;;;;7.12;5.95;;;-0.80;99.90;;;;;;488329;242;27380;-74
2022/02/28 05:47:00;;;;;;;9.20;6.32;;;-0.70;99.90;;;;;;488339;243;27890;-75
2022/02/28 05:49:01;;;;;;;8.40;6.97;;;-0.60;99.90;;;;;;488296;242;27889;-75
2022/02/28 05:51:02;;;;;;;9.90;7.25;;;-0.60;99.90;;;;;;488318;242;27911;-75
2022/02/28 05:53:03;;;;;;;9.32;7.37;;;-0.60;99.90;;;;;;488313;242;27427;-75
2022/02/28 05:55:05;;;;;;;9.75;7.80;;;-0.50;99.90;;;;;;488355;242;27393;-75
2022/02/28 05:57:06;;;;;;;10.55;7.82;;;-0.40;99.90;;;;;;488319;242;27517;-75
2022/02/28 05:59:07;;;;;;;13.20;9.63;;;-0.40;99.90;;;;;;488328;242;27380;-74
2022/02/28 06:01:08;;;;;;;12.55;9.05;;;-0.30;99.90;;;;;;488306;242;27419;-74
2022/02/28 06:03:10;;;;;;;12.70;9.27;;;-0.30;99.90;;;;;;488320;242;27487;-76
2022/02/28 06:05:11;;;;;;;11.32;8.25;;;-0.40;99.90;;;;;;488293;243;27987;-75
2022/02/28 06:07:12;;;;;;;10.57;7.60;;;-0.60;99.90;;;;;;488312;242;28003;-75
2022/02/28 06:09:13;;;;;;;9.48;7.65;;;-1.00;99.90;;;;;;487712;242;27450;-75
2022/02/28 06:11:15;;;;;;;7.50;6.70;;;-1.30;99.90;;;;;;487063;244;27394;-74
2022/02/28 06:13:16;;;;;;;9.48;7.20;;;-1.50;99.90;;;;;;487650;244;27517;-75
2022/02/28 06:15:17;;;;;;;7.12;6.28;;;-1.50;99.90;;;;;;484793;244;27474;-75
2022/02/28 06:17:18;;;;;;;8.35;7.07;;;-1.50;99.90;;;;;;487099;244;27409;-75
2022/02/28 06:19:20;;;;;;;10.15;6.37;;;-1.50;99.90;;;;;;487075;244;27453;-75
2022/02/28 06:21:21;;;;;;;7.18;6.57;;;-1.50;99.90;;;;;;487061;244;27593;-75
2022/02/28 06:23:22;;;;;;;6.90;6.30;;;-1.60;99.90;;;;;;487070;244;27954;-75
2022/02/28 06:25:23;;;;;;;7.18;6.07;;;-1.50;99.90;;;;;;487062;244;27853;-75
2022/02/28 06:27:25;;;;;;;9.55;7.78;;;-1.50;99.90;;;;;;487050;244;27429;-75
2022/02/28 06:29:26;;;;;;;8.73;7.47;;;-1.30;99.90;;;;;;487052;244;27474;-75
2022/02/28 06:31:27;;;;;;;9.13;7.20;;;-1.20;99.90;;;;;;487068;244;27429;-75
2022/02/28 06:33:28;;;;;;;9.45;7.37;;;-1.10;99.90;;;;;;487082;244;27470;-75
2022/02/28 06:35:30;;;;;;;11.25;7.50;;;-1.00;99.90;;;;;;487080;244;27202;-75
2022/02/28 06:37:31;;;;;;;8.10;6.55;;;-0.90;99.90;;;;;;487096;244;27530;-75
2022/02/28 06:39:32;;;;;;;8.35;6.90;;;-0.90;99.90;;;;;;487088;244;27457;-76
2022/02/28 06:41:33;;;;;;;8.00;6.07;;;-0.90;99.90;;;;;;487064;244;27873;-76
2022/02/28 06:43:35;;;;;;;8.52;6.87;;;-1.10;99.90;;;;;;487106;244;27978;-75
2022/02/28 06:45:36;;;;;;;7.22;6.30;;;-1.30;99.90;;;;;;487091;244;28997;-75
2022/02/28 06:47:37;;;;;;;6.57;5.93;;;-1.30;99.90;;;;;;487089;244;27516;-75
2022/02/28 06:49:38;;;;;;;6.47;5.53;;;-1.40;99.90;;;;;;487071;244;27473;-74
2022/02/28 06:51:40;;;;;;;5.80;5.22;;;-1.40;99.90;;;;;;487052;244;27502;-74
2022/02/28 06:53:41;;;;;;;8.48;5.60;;;-1.40;99.90;;;;;;487084;244;27445;-79
2022/02/28 06:55:44;;;;;;;6.75;6.10;;;-1.40;99.90;;;;;;487042;244;27455;-75
2022/02/28 06:57:43;;;;;;;6.22;5.62;;;-1.40;99.90;;;;;;486977;244;27469;-75
2022/02/28 06:59:45;;;;;;;6.22;5.62;;;-1.40;99.90;;;;;;487050;244;27369;-75
2022/02/28 07:01:46;;;;;;;6.43;5.55;;;-1.30;99.90;;;;;;487065;244;27900;-75
2022/02/28 07:03:47;;;;;;;6.50;5.20;;;-1.30;99.90;;;;;;486989;244;28572;-75
2022/02/28 07:05:49;;;;;;;5.78;5.12;;;-1.30;99.90;;;;;;487085;241;27932;-75
2022/02/28 07:07:50;;;;;;;8.48;5.75;;;-1.10;99.90;;;;;;487067;243;27607;-75
2022/02/28 07:09:51;;;;;;;6.68;5.95;;;-1.00;99.90;;;;;;487078;243;27473;-75
2022/02/28 07:11:52;;;;;;;7.03;5.80;;;-0.80;99.90;;;;;;487055;244;27493;-76
2022/02/28 07:13:54;;;;;;;6.68;5.50;;;-0.70;99.90;;;;;;487046;244;27437;-75
2022/02/28 07:15:55;;;;;;;7.68;6.53;;;-0.70;99.90;;;;;;487065;244;27421;-75
2022/02/28 07:17:56;;;;;;;7.65;6.07;;;-0.40;99.90;;;;;;487067;244;27420;-75
2022/02/28 07:19:57;;;;;;;8.52;7.53;;;-0.40;99.90;;;;;;487063;244;27375;-75
2022/02/28 07:21:59;;;;;;;7.95;6.12;;;-0.30;99.90;;;;;;487040;244;28005;-75
2022/02/28 07:24:01;;;;;;;9.70;6.60;;;-0.30;99.90;;;;;;487068;244;28044;-75
2022/02/28 07:26:01;;;;;;;8.25;6.35;;;-0.30;99.90;;;;;;486996;244;29127;-75
2022/02/28 07:28:02;;;;;;;7.95;7.07;;;-0.20;99.90;;;;;;487066;244;27425;-76
2022/02/28 07:30:04;;;;;;;8.23;6.40;;;-0.10;99.90;;;;;;487066;244;27462;-74
2022/02/28 07:32:05;;;;;;;7.22;6.53;;;0.00;99.90;;;;;;487049;244;27481;-75
2022/02/28 07:34:06;;;;;;;9.80;6.75;;;0.20;99.90;;;;;;487086;244;27746;-76
2022/02/28 07:36:07;;;;;;;9.05;6.53;;;0.30;99.90;;;;;;487076;244;27452;-75
2022/02/28 07:38:09;;;;;;;9.68;7.28;;;0.20;99.90;;;;;;487062;244;27482;-75
2022/02/28 07:40:10;;;;;;;8.68;7.35;;;0.20;99.90;;;;;;487060;244;27447;-75
2022/02/28 07:42:11;;;;;;;10.40;7.65;;;0.40;99.90;;;;;;487063;244;27474;-75
2022/02/28 07:44:13;;;;;;;15.57;8.75;;;0.60;99.90;;;;;;487052;244;28075;-75
2022/02/28 07:46:14;;;;;;;9.88;7.68;;;0.80;99.90;;;;;;487048;244;27949;-75
2022/02/28 07:48:15;;;;;;;10.13;7.85;;;0.80;99.90;;;;;;487036;244;27897;-75
2022/02/28 07:50:16;;;;;;;11.73;8.05;;;0.70;99.90;;;;;;487054;243;29116;-75
2022/02/28 07:52:17;;;;;;;12.40;9.15;;;0.70;99.90;;;;;;487075;244;27490;-75
2022/02/28 07:54:19;;;;;;;12.37;8.70;;;0.90;99.90;;;;;;487080;243;27477;-75
2022/02/28 07:56:20;;;;;;;11.85;7.78;;;0.90;99.90;;;;;;487080;244;27370;-75
2022/02/28 07:58:21;;;;;;;10.48;7.70;;;0.80;99.90;;;;;;487047;244;27416;-74
2022/02/28 08:00:22;;;;;;;11.63;7.90;;;1.00;99.90;;;;;;487067;244;27450;-76
2022/02/28 08:02:24;;;;;;;13.00;8.85;;;1.10;99.90;;;;;;487065;244;27397;-76
2022/02/28 08:04:25;;;;;;;12.60;8.80;;;1.10;99.90;;;;;;487064;244;27394;-75
2022/02/28 08:06:26;;;;;;;10.13;7.78;;;1.20;99.90;;;;;;487078;244;27908;-75
2022/02/28 08:08:27;;;;;;;10.35;8.27;;;1.40;99.90;;;;;;487094;244;28008;-76
2022/02/28 08:10:29;;;;;;;10.82;8.32;;;1.30;99.90;;;;;;487070;244;27462;-75
2022/02/28 08:12:31;;;;;;;9.30;7.32;;;1.40;99.90;;;;;;487084;244;27429;-75
2022/02/28 08:14:31;;;;;;;10.07;7.70;;;1.40;99.90;;;;;;487043;241;27406;-75
2022/02/28 08:16:32;;;;;;;12.30;7.93;;;1.60;99.90;;;;;;487079;244;27386;-76
2022/02/28 08:18:34;;;;;;;14.93;10.20;;;1.70;99.90;;;;;;487072;244;27402;-76
2022/02/28 08:20:35;;;;;;;17.12;8.77;;;1.70;99.90;;;;;;487074;244;27365;-75
2022/02/28 08:22:36;;;;;;;10.70;8.25;;;1.80;99.90;;;;;;486981;244;27485;-74
2022/02/28 08:24:37;;;;;;;9.05;7.37;;;1.60;99.90;;;;;;487054;244;27462;-76
2022/02/28 08:26:39;;;;;;;10.25;8.02;;;1.70;99.90;;;;;;487067;244;27949;-75
2022/02/28 08:28:40;;;;;;;13.40;8.15;;;1.90;99.90;;;;;;487086;244;27894;-76
2022/02/28 08:30:41;;;;;;;12.05;7.60;;;2.00;99.90;;;;;;487051;244;27905;-75
2022/02/28 08:32:42;;;;;;;9.98;8.10;;;2.10;99.90;;;;;;487052;244;27485;-76
2022/02/28 08:34:44;;;;;;;11.00;8.07;;;2.10;99.90;;;;;;487059;244;27473;-76
2022/02/28 08:36:45;;;;;;;11.35;8.10;;;2.10;99.90;;;;;;487072;244;27422;-76
2022/02/28 08:38:46;;;;;;;12.57;7.97;;;2.10;99.90;;;;;;487059;244;27464;-76
2022/02/28 08:40:47;;;;;;;11.20;9.52;;;2.20;99.90;;;;;;487055;244;27363;-75
2022/02/28 08:42:49;;;;;;;15.30;8.98;;;2.40;99.90;;;;;;487049;244;27469;-75
2022/02/28 08:44:50;;;;;;;12.43;8.68;;;2.40;99.90;;;;;;487053;244;27378;-75
2022/02/28 08:46:51;;;;;;;12.37;8.68;;;2.40;99.90;;;;;;487000;241;27980;-75
2022/02/28 08:48:52;;;;;;;11.35;8.60;;;2.50;99.90;;;;;;487074;244;27987;-75
2022/02/28 08:50:54;;;;;;;10.13;8.10;;;2.50;99.90;;;;;;487063;244;27846;-75
2022/02/28 08:52:55;;;;;;;8.85;7.40;;;2.50;99.90;;;;;;487046;244;27398;-75
2022/02/28 08:54:56;;;;;;;12.05;8.60;;;2.50;99.90;;;;;;487076;244;27399;-76
2022/02/28 08:57:00;;;;;;;14.25;8.20;;;2.70;99.90;;;;;;487065;244;27483;-75
2022/02/28 08:58:59;;;;;;;8.35;6.90;;;2.80;99.90;;;;;;486925;244;27784;-76
2022/02/28 09:01:00;;;;;;;10.32;7.82;;;2.80;99.90;;;;;;487042;244;27366;-76
2022/02/28 09:03:06;;;;;;;15.80;8.30;;;3.00;99.90;;;;;;487099;244;27421;-75
2022/02/28 09:05:02;;;;;;;9.38;7.15;;;3.20;99.90;;;;;;486700;244;27457;-75
2022/02/28 09:07:04;;;;;;;10.02;7.03;;;3.20;99.90;;;;;;487041;244;27525;-75
2022/02/28 09:09:05;;;;;;;9.38;7.03;;;3.20;99.90;;;;;;487090;244;28046;-75
2022/02/28 09:11:06;;;;;;;13.98;8.05;;;3.30;99.90;;;;;;487084;242;27945;-75
2022/02/28 09:13:07;;;;;;;12.15;8.25;;;3.40;99.90;;;;;;487107;244;27967;-74
2022/02/28 09:15:09;;;;;;;9.23;6.75;;;3.60;99.90;;;;;;487078;244;27439;-76
2022/02/28 09:17:10;;;;;;;9.85;7.18;;;3.60;99.90;;;;;;487107;244;27416;-76
2022/02/28 09:19:11;;;;;;;9.57;7.32;;;3.70;99.90;;;;;;487120;244;27406;-74
2022/02/28 09:21:12;;;;;;;11.00;7.30;;;3.70;99.90;;;;;;487108;244;27449;-75
2022/02/28 09:23:14;;;;;;;9.70;7.57;;;3.60;99.90;;;;;;487085;244;27466;-76
2022/02/28 09:25:15;;;;;;;8.95;7.32;;;3.70;99.90;;;;;;487082;244;27366;-75
2022/02/28 09:27:16;;;;;;;10.98;8.10;;;3.90;99.90;;;;;;487061;244;27430;-74
2022/02/28 09:29:17;;;;;;;8.82;7.28;;;3.90;99.90;;;;;;487094;244;27448;-75
2022/02/28 09:31:19;;;;;;;7.45;5.90;;;4.00;99.90;;;;;;487094;244;27367;-75
2022/02/28 09:33:20;;;;;;;11.10;7.70;;;4.00;99.90;;;;;;487060;244;27866;-75
2022/02/28 09:35:21;;;;;;;8.25;6.70;;;4.00;99.90;;;;;;486925;244;27993;-75
2022/02/28 09:37:22;;;;;;;8.98;7.60;;;4.20;99.90;;;;;;487057;244;27942;-76
2022/02/28 09:39:24;;;;;;;7.68;6.90;;;4.20;99.90;;;;;;487082;244;27370;-75
2022/02/28 09:41:25;;;;;;;8.45;6.87;;;4.20;99.90;;;;;;487088;244;27450;-76
2022/02/28 09:43:26;;;;;;;9.20;6.93;;;4.20;99.90;;;;;;487092;244;27406;-76
2022/02/28 09:45:27;;;;;;;7.62;6.10;;;4.20;99.90;;;;;;487051;244;27363;-75
2022/02/28 09:47:29;;;;;;;7.85;6.87;;;4.20;99.90;;;;;;487079;244;27411;-76
2022/02/28 09:49:30;;;;;;;7.07;5.87;;;4.30;99.90;;;;;;487079;244;27462;-75
2022/02/28 09:51:31;;;;;;;7.30;5.97;;;4.30;99.90;;;;;;487064;244;27477;-75
2022/02/28 09:53:32;;;;;;;7.65;6.37;;;4.10;99.90;;;;;;487066;244;27418;-75
2022/02/28 09:55:34;;;;;;;7.55;5.62;;;4.10;99.90;;;;;;487077;244;27454;-74
2022/02/28 09:57:35;;;;;;;6.97;6.20;;;4.20;99.90;;;;;;487062;244;27411;-75
2022/02/28 09:59:36;;;;;;;7.15;6.25;;;4.50;99.90;;;;;;487053;244;28602;-74
2022/02/28 10:01:37;;;;;;;7.00;6.22;;;4.40;99.90;;;;;;487051;244;27829;-76
2022/02/28 10:03:39;;;;;;;7.57;6.28;;;4.60;99.90;;;;;;487063;244;27886;-75
2022/02/28 10:05:40;;;;;;;8.80;6.50;;;4.70;99.90;;;;;;487086;241;27839;-76
2022/02/28 10:07:41;;;;;;;10.00;6.32;;;4.70;99.90;;;;;;487071;244;27414;-76
2022/02/28 10:09:42;;;;;;;8.50;6.37;;;4.80;99.90;;;;;;487068;244;28926;-75
2022/02/28 10:11:44;;;;;;;8.50;6.18;;;4.90;99.90;;;;;;487053;244;27454;-75
2022/02/28 10:13:45;;;;;;;7.68;6.00;;;4.90;99.90;;;;;;487066;244;27502;-76
2022/02/28 10:15:46;;;;;;;10.75;6.40;;;5.10;99.90;;;;;;487104;244;27470;-77
2022/02/28 10:17:48;;;;;;;6.35;5.75;;;5.10;99.90;;;;;;487092;244;27477;-77
2022/02/28 10:19:49;;;;;;;7.62;6.05;;;5.20;99.90;;;;;;487051;244;27477;-76
2022/02/28 10:21:50;;;;;;;7.10;5.35;;;5.20;99.90;;;;;;487092;244;27383;-75
2022/02/28 10:23:51;;;;;;;9.32;6.03;;;5.20;99.90;;;;;;487095;244;27980;-76
2022/02/28 10:25:53;;;;;;;6.10;5.50;;;5.40;99.90;;;;;;487079;244;27838;-74
2022/02/28 10:27:54;;;;;;;7.70;5.35;;;5.40;99.90;;;;;;487057;244;28994;-76
2022/02/28 10:29:55;;;;;;;6.82;5.53;;;5.40;99.90;;;;;;487062;244;27436;-74
2022/02/28 10:31:56;;;;;;;5.78;5.15;;;5.20;99.90;;;;;;487120;244;27370;-75
2022/02/28 10:33:58;;;;;;;7.68;5.03;;;5.30;99.90;;;;;;487096;244;27418;-76
2022/02/28 10:36:10;;;;;;;8.52;5.70;;;5.40;99.90;;;;;;487102;244;27423;-76